»·PEaware :: WAT306 KSLC-P20

WAT306 :: KSLC-P20

FLIGHT INFORMATION

Flight Status: Arrived
Operator:
Walker Air Transport
More flights by this operator :: More flights under this callsign
Pilot: Ethan S. (29221)
Aircraft: SOCATA TBM-900
(TBM9)
More flights by this aircraft type
Origin: KSLC Salt Lake City Intl
United States
Destination: P20 Avi Suquilla
United States
More flights between these airports :: More routes between these airports
Route: +FFU9 MLF EED
File this flight plan on PilotEdge
Remarks:
Altitude:
(Current/Filed)
30,000ft
Speed:
(Current/Filed)
320kts
Departed: 11-Oct-20 07:52 PM
Arrived: 11-Oct-20 09:25 PM
Distance/Time
Traveled:
413nm/1:33
Distance/Time
To Go:
Arrived

Flight Plot

Page will automatically refresh every two minutes.

Flight plan parsing failed; only flown route is shown


Map Options




Map Legend


Flown Route
Filed Route
Departure Airport
Arrival Airport
Navaid (VOR, NDB)
Fix

Horizontal Profiles

Position Reports

Time Latitude Longitude Heading Altitude Ground
Speed
11-Oct-20 19:18 40.775671 -111.959392 357 4222ft 0kts
11-Oct-20 19:19 40.775671 -111.959392 357 4222ft 0kts
11-Oct-20 19:20 40.775671 -111.959392 357 4222ft 0kts
11-Oct-20 19:21 40.775671 -111.959392 357 4222ft 0kts
11-Oct-20 19:22 40.775671 -111.959392 357 4222ft 0kts
11-Oct-20 19:23 40.775671 -111.959392 357 4222ft 0kts
11-Oct-20 19:24 40.775671 -111.959392 357 4222ft 0kts
11-Oct-20 19:25 40.775671 -111.959392 357 4222ft 0kts
11-Oct-20 19:26 40.775671 -111.959392 357 4222ft 0kts
11-Oct-20 19:27 40.775671 -111.959392 357 4222ft 0kts
11-Oct-20 19:28 40.775671 -111.959392 357 4222ft 0kts
11-Oct-20 19:29 40.775671 -111.959392 357 4222ft 0kts
11-Oct-20 19:30 40.775671 -111.959392 357 4222ft 0kts
11-Oct-20 19:31 40.775671 -111.959392 357 4222ft 0kts
11-Oct-20 19:32 40.775671 -111.959392 357 4222ft 0kts
11-Oct-20 19:33 40.775671 -111.959392 357 4222ft 0kts
11-Oct-20 19:34 40.775671 -111.959392 357 4222ft 0kts
11-Oct-20 19:35 40.775671 -111.959392 357 4222ft 0kts
11-Oct-20 19:36 40.775671 -111.959392 357 4222ft 0kts
11-Oct-20 19:37 40.775671 -111.959392 357 4222ft 0kts
11-Oct-20 19:38 40.775671 -111.959392 357 4222ft 0kts
11-Oct-20 19:39 40.775671 -111.959392 357 4222ft 0kts
11-Oct-20 19:40 40.775671 -111.959392 357 4222ft 0kts
11-Oct-20 19:41 40.775671 -111.959392 357 4222ft 0kts
11-Oct-20 19:42 40.775671 -111.959392 357 4222ft 0kts
11-Oct-20 19:43 40.776358 -111.959671 356 4222ft 6kts
11-Oct-20 19:44 40.779135 -111.960021 0 4222ft 12kts
11-Oct-20 19:45 40.784438 -111.960014 0 4219ft 26kts
11-Oct-20 19:46 40.791153 -111.960012 359 4219ft 23kts
11-Oct-20 19:47 40.797816 -111.960023 359 4219ft 17kts
11-Oct-20 19:48 40.799393 -111.960479 269 4219ft 0kts
11-Oct-20 19:49 40.799393 -111.960479 269 4219ft 0kts
11-Oct-20 19:50 40.798230 -111.962060 185 4219ft 17kts
11-Oct-20 19:51 40.772932 -111.961641 170 4802ft 140kts
11-Oct-20 19:52 40.735852 -111.954099 171 6994ft 129kts
11-Oct-20 19:53 40.699341 -111.943293 171 8796ft 139kts
11-Oct-20 19:54 40.659631 -111.928194 171 10839ft 154kts
11-Oct-20 19:55 40.615227 -111.925416 190 12627ft 162kts
11-Oct-20 19:56 40.568449 -111.927471 192 14493ft 171kts
11-Oct-20 19:57 40.519794 -111.929614 193 16726ft 175kts
11-Oct-20 19:58 40.469104 -111.931887 195 18997ft 185kts
11-Oct-20 19:59 40.415690 -111.934265 196 21222ft 191kts
11-Oct-20 20:00 40.359694 -111.936767 197 23106ft 200kts
11-Oct-20 20:01 40.301395 -111.939368 197 24842ft 211kts
11-Oct-20 20:02 40.240085 -111.945563 203 27166ft 213kts
11-Oct-20 20:03 40.175840 -111.954959 204 29252ft 223kts
11-Oct-20 20:04 40.108878 -111.964953 202 30370ft 267kts
11-Oct-20 20:05 40.025625 -111.976861 199 30333ft 313kts
11-Oct-20 20:06 39.933063 -111.990155 198 30321ft 329kts
11-Oct-20 20:07 39.839066 -112.003681 198 30308ft 334kts
11-Oct-20 20:08 39.744675 -112.017247 198 30305ft 336kts
11-Oct-20 20:09 39.649955 -112.030827 198 30301ft 336kts
11-Oct-20 20:10 39.555319 -112.044359 198 30301ft 337kts
11-Oct-20 20:11 39.458279 -112.058195 198 30301ft 337kts
11-Oct-20 20:12 39.359429 -112.072252 198 30302ft 337kts
11-Oct-20 20:13 39.260373 -112.086296 198 30303ft 338kts
11-Oct-20 20:14 39.161322 -112.100882 203 30291ft 331kts
11-Oct-20 20:15 39.085900 -112.161077 236 30306ft 290kts
11-Oct-20 20:16 39.022205 -112.237421 235 30302ft 292kts
11-Oct-20 20:17 38.958137 -112.313453 234 30303ft 295kts
11-Oct-20 20:18 38.893250 -112.390235 234 30298ft 300kts
11-Oct-20 20:19 38.826906 -112.468478 234 30289ft 303kts
11-Oct-20 20:20 38.759825 -112.547422 233 30276ft 304kts
11-Oct-20 20:21 38.692004 -112.627016 234 30266ft 304kts
11-Oct-20 20:22 38.623879 -112.706769 233 30276ft 305kts
11-Oct-20 20:23 38.556047 -112.785952 233 30276ft 306kts
11-Oct-20 20:24 38.488449 -112.864656 233 30276ft 306kts
11-Oct-20 20:25 38.420940 -112.943045 233 30276ft 305kts
11-Oct-20 20:26 38.350298 -113.017602 216 30277ft 323kts
11-Oct-20 20:27 38.256501 -113.057545 209 30276ft 330kts
11-Oct-20 20:28 38.163099 -113.097252 209 30277ft 329kts
11-Oct-20 20:29 38.070102 -113.136692 209 30277ft 329kts
11-Oct-20 20:30 37.976380 -113.176341 209 30278ft 329kts
11-Oct-20 20:31 37.885261 -113.214784 209 30268ft 330kts
11-Oct-20 20:32 37.796741 -113.252026 209 30268ft 328kts
11-Oct-20 20:33 37.708578 -113.289035 209 30269ft 328kts
11-Oct-20 20:34 37.620285 -113.326002 209 30269ft 327kts
11-Oct-20 20:35 37.531774 -113.362972 209 30251ft 328kts
11-Oct-20 20:37 37.443325 -113.399826 209 30199ft 329kts
11-Oct-20 20:38 37.354465 -113.436746 209 30138ft 330kts
11-Oct-20 20:39 37.265409 -113.473659 209 30107ft 329kts
11-Oct-20 20:40 37.176610 -113.510377 209 30107ft 328kts
11-Oct-20 20:41 37.087671 -113.547097 208 30106ft 329kts
11-Oct-20 20:42 36.997811 -113.584103 207 30110ft 333kts
11-Oct-20 20:43 36.906161 -113.621667 206 30113ft 338kts
11-Oct-20 20:44 36.815106 -113.658930 205 30108ft 339kts
11-Oct-20 20:45 36.723634 -113.696279 205 30109ft 340kts
11-Oct-20 20:46 36.632124 -113.733551 205 30110ft 341kts
11-Oct-20 20:47 36.539831 -113.771049 205 30110ft 341kts
11-Oct-20 20:48 36.447926 -113.808296 205 30111ft 341kts
11-Oct-20 20:49 36.356102 -113.845417 205 30112ft 342kts
11-Oct-20 20:50 36.264150 -113.882498 205 30108ft 342kts
11-Oct-20 20:50 36.187635 -113.913284 205 30097ft 342kts
11-Oct-20 20:52 36.079929 -113.956511 205 30105ft 342kts
11-Oct-20 20:52 36.002921 -113.987343 205 30128ft 342kts
11-Oct-20 20:54 35.895063 -114.030422 205 30126ft 343kts
11-Oct-20 20:54 35.818272 -114.061013 205 30111ft 342kts
11-Oct-20 20:55 35.726054 -114.097672 205 30116ft 341kts
11-Oct-20 20:56 35.632074 -114.134939 205 30125ft 341kts
11-Oct-20 20:57 35.537716 -114.172262 205 30126ft 341kts
11-Oct-20 20:59 35.426936 -114.215963 205 30127ft 341kts
11-Oct-20 20:59 35.349373 -114.246498 205 29775ft 342kts
11-Oct-20 21:00 35.251920 -114.284761 204 27859ft 346kts
11-Oct-20 21:01 35.153469 -114.323305 204 25931ft 343kts
11-Oct-20 21:02 35.057771 -114.360689 203 24034ft 332kts
11-Oct-20 21:03 34.970495 -114.394749 202 23951ft 282kts
11-Oct-20 21:04 34.893769 -114.424621 200 23957ft 261kts
11-Oct-20 21:05 34.821776 -114.452504 200 23957ft 254kts
11-Oct-20 21:06 34.747990 -114.468112 163 24010ft 254kts
11-Oct-20 21:07 34.675706 -114.443690 163 23980ft 251kts
11-Oct-20 21:08 34.605634 -114.420119 163 23986ft 248kts
11-Oct-20 21:09 34.535186 -114.403680 205 22288ft 256kts
11-Oct-20 21:10 34.471132 -114.445422 211 20245ft 246kts
11-Oct-20 21:11 34.409459 -114.486989 211 18171ft 242kts
11-Oct-20 21:12 34.349679 -114.528149 211 16114ft 237kts
11-Oct-20 21:13 34.290993 -114.542727 152 14855ft 196kts
11-Oct-20 21:14 34.237388 -114.517194 158 13312ft 200kts
11-Oct-20 21:15 34.198385 -114.477614 111 12015ft 184kts
11-Oct-20 21:16 34.192312 -114.413884 65 10024ft 191kts
11-Oct-20 21:17 34.228754 -114.364440 27 8000ft 196kts
11-Oct-20 21:18 34.280365 -114.335492 27 5931ft 198kts
11-Oct-20 21:19 34.305682 -114.289001 116 3832ft 192kts
11-Oct-20 21:20 34.282082 -114.231274 119 2473ft 181kts
11-Oct-20 21:21 34.234583 -114.216223 203 1732ft 185kts
11-Oct-20 21:22 34.192157 -114.242211 205 1177ft 121kts
11-Oct-20 21:23 34.168567 -114.256473 205 710ft 85kts
11-Oct-20 21:24 34.151140 -114.267073 230 455ft 15kts
11-Oct-20 21:25 34.152622 -114.271214 296 447ft 14kts
11-Oct-20 21:26 34.153173 -114.272540 26 446ft 0kts
11-Oct-20 21:27 34.153173 -114.272540 26 446ft 0kts

Navigation Log

Ident Type
Flight plan parsing failed, navigation log unavailable